createdAt,value
2022-10-04T00:02:05.827Z,9.98
2022-10-04T00:04:46.092Z,9.43
2022-10-04T00:07:14.052Z,10.10
2022-10-04T00:09:49.455Z,9.73
2022-10-04T00:12:36.540Z,11.05
2022-10-04T00:15:19.546Z,10.43
2022-10-04T00:18:03.226Z,10.00
2022-10-04T00:20:49.593Z,10.52
2022-10-04T00:23:26.808Z,9.52
2022-10-04T00:26:00.385Z,9.95
2022-10-04T00:28:42.625Z,9.00
2022-10-04T00:31:10.762Z,8.98
2022-10-04T00:33:41.308Z,10.10
2022-10-04T00:36:24.649Z,10.43
2022-10-04T00:39:10.895Z,10.43
2022-10-04T00:42:18.667Z,9.80
2022-10-04T00:44:59.050Z,10.07
2022-10-04T00:47:45.485Z,8.75
2022-10-04T00:50:26.485Z,9.30
2022-10-04T00:52:58.820Z,10.07
2022-10-04T00:55:38.040Z,9.68
2022-10-04T00:58:22.722Z,9.75
2022-10-04T01:00:53.402Z,10.48
2022-10-04T01:03:40.325Z,9.63
2022-10-04T01:06:12.252Z,10.60
2022-10-04T01:08:52.629Z,10.45
2022-10-04T01:11:48.375Z,12.05
2022-10-04T01:14:27.288Z,12.82
2022-10-04T01:16:58.233Z,12.55
2022-10-04T01:19:26.183Z,12.25
2022-10-04T01:22:09.338Z,12.18
2022-10-04T01:24:46.300Z,13.40
2022-10-04T01:27:34.091Z,14.30
2022-10-04T01:30:06.335Z,14.65
2022-10-04T01:32:38.031Z,14.57
2022-10-04T01:35:10.327Z,15.30
2022-10-04T01:37:41.418Z,15.68
2022-10-04T01:40:12.866Z,15.02
2022-10-04T01:42:50.591Z,15.43
2022-10-04T01:45:23.278Z,15.20
2022-10-04T01:47:59.379Z,16.05
2022-10-04T01:50:41.208Z,16.17
2022-10-04T01:53:15.301Z,15.43
2022-10-04T01:58:20.451Z,17.08
2022-10-04T02:00:59.311Z,16.60
2022-10-04T02:03:39.838Z,17.65
2022-10-04T02:06:11.186Z,18.75
2022-10-04T02:08:48.108Z,18.17
2022-10-04T02:11:20.037Z,17.08
2022-10-04T02:13:54.078Z,17.65
2022-10-04T02:18:52.615Z,15.48
2022-10-04T02:21:21.360Z,16.08
2022-10-04T02:23:50.126Z,16.80
2022-10-04T02:26:18.359Z,17.40
2022-10-04T02:28:46.405Z,16.42
2022-10-04T02:31:14.651Z,16.13
2022-10-04T02:33:44.889Z,14.15
2022-10-04T02:36:13.881Z,17.23
2022-10-04T02:39:16.053Z,17.35
2022-10-04T02:41:58.296Z,15.52
2022-10-04T02:44:37.426Z,17.65
2022-10-04T02:47:16.051Z,18.05
2022-10-04T02:49:53.837Z,17.67
2022-10-04T02:52:56.936Z,15.75
2022-10-04T02:55:28.233Z,14.63
2022-10-04T02:58:00.616Z,15.05
2022-10-04T03:00:31.410Z,17.38
2022-10-04T03:03:31.136Z,16.55
2022-10-04T03:06:16.785Z,17.63
2022-10-04T03:08:44.768Z,18.20
2022-10-04T03:11:17.230Z,17.83
2022-10-04T03:13:49.717Z,17.55
2022-10-04T03:16:21.683Z,17.20
2022-10-04T03:18:51.342Z,16.50
2022-10-04T03:21:26.245Z,18.15
2022-10-04T03:23:55.521Z,17.33
2022-10-04T03:26:43.846Z,17.70
2022-10-04T03:29:14.471Z,18.38
2022-10-04T03:31:47.754Z,18.30
2022-10-04T03:34:32.966Z,16.70
2022-10-04T03:37:02.221Z,17.80
2022-10-04T03:39:34.379Z,16.63
2022-10-04T03:42:23.501Z,17.75
2022-10-04T03:45:05.337Z,17.42
2022-10-04T03:47:36.869Z,15.80
2022-10-04T03:50:30.987Z,17.23
2022-10-04T03:53:02.747Z,17.40
2022-10-04T03:55:37.238Z,18.55
2022-10-04T03:58:06.328Z,17.20
2022-10-04T04:00:43.851Z,17.85
2022-10-04T04:03:19.104Z,16.92
2022-10-04T04:05:55.204Z,16.38
2022-10-04T04:08:38.802Z,15.75
2022-10-04T04:11:08.415Z,15.52
2022-10-04T04:13:53.460Z,18.50
2022-10-04T04:16:23.520Z,17.50
2022-10-04T04:18:55.885Z,17.50
2022-10-04T04:21:26.352Z,18.75
2022-10-04T04:24:02.001Z,20.38
2022-10-04T04:27:00.240Z,20.73
2022-10-04T04:29:37.188Z,19.52
2022-10-04T04:32:33.537Z,18.23
2022-10-04T04:35:02.674Z,17.65
2022-10-04T04:37:33.274Z,17.70
2022-10-04T04:40:19.420Z,19.27
2022-10-04T04:42:49.303Z,16.27
2022-10-04T04:45:21.485Z,18.88
2022-10-04T04:47:55.860Z,20.88
2022-10-04T04:50:35.164Z,20.17
2022-10-04T04:53:24.234Z,21.98
2022-10-04T04:56:04.915Z,20.85
2022-10-04T04:58:37.356Z,20.63
2022-10-04T05:01:30.565Z,20.63
2022-10-04T05:04:05.709Z,20.17
2022-10-04T05:06:35.921Z,20.95
2022-10-04T05:09:05.618Z,19.30
2022-10-04T05:11:39.662Z,18.40
2022-10-04T05:14:11.687Z,18.83
2022-10-04T05:16:42.351Z,19.83
2022-10-04T05:19:14.732Z,20.10
2022-10-04T05:21:46.917Z,19.25
2022-10-04T05:24:23.710Z,20.02
2022-10-04T05:26:58.524Z,20.92
2022-10-04T05:29:30.580Z,20.75
2022-10-04T05:32:06.460Z,18.20
2022-10-04T05:34:41.145Z,17.83
2022-10-04T05:37:30.825Z,17.55
2022-10-04T05:40:07.503Z,17.27
2022-10-04T05:42:42.832Z,18.27
2022-10-04T05:45:20.219Z,20.55
2022-10-04T05:47:51.887Z,19.52
2022-10-04T05:50:39.387Z,20.00
2022-10-04T05:53:30.777Z,19.27
2022-10-04T05:56:32.097Z,21.00
2022-10-04T05:59:24.140Z,20.48
2022-10-04T06:02:04.562Z,21.63
2022-10-04T06:04:54.166Z,21.42
2022-10-04T06:07:35.448Z,19.05
2022-10-04T06:10:27.455Z,18.98
2022-10-04T06:13:08.493Z,18.15
2022-10-04T06:15:54.476Z,19.27
2022-10-04T06:18:44.989Z,21.70
2022-10-04T06:21:51.246Z,22.75
2022-10-04T06:24:26.921Z,22.38
2022-10-04T06:27:19.339Z,22.40
2022-10-04T06:30:08.625Z,23.00
2022-10-04T06:33:21.475Z,20.55
2022-10-04T06:36:25.141Z,20.23
2022-10-04T06:38:53.130Z,21.27
2022-10-04T06:41:36.157Z,18.70
2022-10-04T06:44:51.308Z,20.10
2022-10-04T06:47:27.017Z,24.65
2022-10-04T06:50:00.548Z,20.95
2022-10-04T06:53:13.015Z,21.73
2022-10-04T06:55:56.202Z,22.27
2022-10-04T06:58:52.164Z,21.95
2022-10-04T07:01:39.129Z,23.08
2022-10-04T07:05:06.540Z,22.45
2022-10-04T07:07:41.438Z,23.95
2022-10-04T07:10:46.170Z,22.25
2022-10-04T07:13:29.025Z,23.75
2022-10-04T07:16:07.747Z,23.95
2022-10-04T07:18:55.551Z,24.63
2022-10-04T07:21:25.814Z,22.30
2022-10-04T07:23:59.787Z,22.45
2022-10-04T07:29:23.660Z,20.70
2022-10-04T07:32:07.350Z,23.73
2022-10-04T07:35:03.988Z,24.55
2022-10-04T07:37:37.486Z,25.55
2022-10-04T07:40:09.636Z,22.67
2022-10-04T07:42:52.628Z,21.75
2022-10-04T07:45:40.601Z,20.90
2022-10-04T07:48:22.653Z,21.45
2022-10-04T07:51:45.950Z,21.52
2022-10-04T07:54:24.592Z,24.73
2022-10-04T07:57:05.024Z,22.88
2022-10-04T07:59:58.802Z,27.73
2022-10-04T08:02:33.376Z,28.40
2022-10-04T08:05:10.450Z,26.42
2022-10-04T08:07:51.037Z,23.55
2022-10-04T08:10:26.837Z,21.48
2022-10-04T08:13:34.532Z,21.95
2022-10-04T08:16:33.546Z,21.50
2022-10-04T08:19:16.559Z,27.52
2022-10-04T08:21:56.324Z,23.42
2022-10-04T08:24:52.695Z,25.48
2022-10-04T08:27:39.359Z,26.30
2022-10-04T08:30:17.305Z,25.70
2022-10-04T08:33:23.292Z,24.02
2022-10-04T08:36:07.094Z,22.25
2022-10-04T08:39:05.383Z,20.15
2022-10-04T08:41:54.264Z,18.73
2022-10-04T08:44:49.484Z,22.98
2022-10-04T08:47:54.391Z,22.98
2022-10-04T08:53:36.644Z,23.17
2022-10-04T08:56:18.027Z,22.92
2022-10-04T08:58:53.857Z,21.65
2022-10-04T09:01:46.588Z,20.73
2022-10-04T09:04:14.587Z,19.10
2022-10-04T09:06:54.705Z,19.73
2022-10-04T09:13:14.341Z,22.42
2022-10-04T09:16:17.119Z,22.73
2022-10-04T09:18:56.928Z,24.25
2022-10-04T09:21:44.405Z,20.33
2022-10-04T09:24:30.145Z,18.83
2022-10-04T09:27:06.712Z,19.25
2022-10-04T09:29:49.612Z,21.58
2022-10-04T09:32:28.066Z,24.65
2022-10-04T09:35:11.425Z,27.40
2022-10-04T09:37:45.271Z,26.10
2022-10-04T09:40:34.929Z,27.23
2022-10-04T09:43:08.574Z,27.00
2022-10-04T09:46:01.296Z,28.40
2022-10-04T09:49:05.568Z,27.05
2022-10-04T09:51:51.672Z,24.55
2022-10-04T09:54:28.584Z,26.48
2022-10-04T09:57:07.307Z,23.38
2022-10-04T09:59:38.353Z,22.85
2022-10-04T10:02:39.697Z,22.73
2022-10-04T10:05:16.276Z,21.65
2022-10-04T10:07:50.235Z,22.20
2022-10-04T10:13:04.020Z,24.33
2022-10-04T10:15:34.792Z,21.15
2022-10-04T10:18:11.603Z,26.73
2022-10-04T10:20:50.657Z,22.42
2022-10-04T10:23:21.662Z,22.83
2022-10-04T10:26:07.968Z,23.98
2022-10-04T10:28:48.181Z,21.00
2022-10-04T10:31:28.687Z,23.60
2022-10-04T10:34:26.663Z,25.85
2022-10-04T10:37:21.878Z,26.00
2022-10-04T10:39:58.480Z,30.05
2022-10-04T10:42:53.521Z,31.55
2022-10-04T10:45:21.485Z,25.90
2022-10-04T10:48:00.926Z,30.38
2022-10-04T10:51:02.772Z,26.08
2022-10-04T10:53:51.933Z,24.15
2022-10-04T10:56:26.701Z,23.33
2022-10-04T10:59:21.580Z,26.77
2022-10-04T11:02:42.530Z,29.90
2022-10-04T11:05:45.349Z,26.60
2022-10-04T11:08:37.300Z,27.52
2022-10-04T11:11:34.864Z,25.65
2022-10-04T11:14:20.496Z,26.92
2022-10-04T11:17:20.088Z,26.20
2022-10-04T11:20:06.420Z,26.38
2022-10-04T11:23:15.409Z,25.27
2022-10-04T11:26:01.755Z,25.15
2022-10-04T11:28:54.572Z,24.60
2022-10-04T11:31:58.805Z,22.33
2022-10-04T11:35:12.153Z,23.98
2022-10-04T11:37:58.311Z,21.02
2022-10-04T11:40:47.446Z,19.63
2022-10-04T11:43:42.529Z,21.80
2022-10-04T11:46:11.173Z,20.92
2022-10-04T11:48:54.151Z,21.88
2022-10-04T11:51:40.317Z,23.40
2022-10-04T11:54:57.107Z,19.95
2022-10-04T11:57:55.450Z,23.75
2022-10-04T12:00:32.093Z,22.08
2022-10-04T12:03:20.986Z,24.20
2022-10-04T12:05:52.008Z,29.05
2022-10-04T12:08:47.357Z,23.88
2022-10-04T12:11:50.152Z,33.17
2022-10-04T12:14:48.572Z,31.27
2022-10-04T12:17:37.577Z,29.98
2022-10-04T12:20:23.370Z,32.40
2022-10-04T12:23:10.281Z,26.80
2022-10-04T12:25:56.064Z,23.83
2022-10-04T12:28:54.125Z,23.67
2022-10-04T12:31:38.018Z,21.55
2022-10-04T12:34:13.244Z,25.23
2022-10-04T12:36:56.084Z,22.52
2022-10-04T12:39:36.061Z,22.92
2022-10-04T12:42:24.045Z,29.08
2022-10-04T12:45:28.782Z,29.23
2022-10-04T12:48:24.180Z,30.15
2022-10-04T12:51:01.694Z,25.98
2022-10-04T12:54:13.268Z,28.90
2022-10-04T12:57:09.113Z,27.80
2022-10-04T12:59:40.042Z,23.40
2022-10-04T13:02:29.786Z,24.23
2022-10-04T13:05:30.646Z,22.42
2022-10-04T13:08:13.188Z,24.10
2022-10-04T13:10:58.872Z,30.67
2022-10-04T13:13:56.829Z,25.90
2022-10-04T13:17:34.030Z,26.67
2022-10-04T13:20:24.855Z,22.50
2022-10-04T13:23:03.045Z,22.80
2022-10-04T13:26:02.794Z,26.95
2022-10-04T13:28:50.352Z,30.42
2022-10-04T13:31:21.817Z,27.38
2022-10-04T13:33:52.406Z,24.52
2022-10-04T13:36:29.412Z,37.45
2022-10-04T13:39:17.138Z,37.83
2022-10-04T13:41:54.737Z,38.38
2022-10-04T13:44:25.660Z,27.75
2022-10-04T13:46:59.616Z,24.77
2022-10-04T13:52:22.615Z,26.58
2022-10-04T13:54:56.855Z,25.05
2022-10-04T13:57:37.934Z,31.45
2022-10-04T14:00:14.428Z,29.13
2022-10-04T14:02:45.216Z,31.63
2022-10-04T14:05:34.129Z,31.70
2022-10-04T14:08:21.612Z,30.20
2022-10-04T14:11:11.807Z,34.95
2022-10-04T14:14:01.085Z,29.45
2022-10-04T14:16:47.073Z,25.85
2022-10-04T14:19:42.870Z,29.83
2022-10-04T14:22:25.649Z,30.02
2022-10-04T14:24:56.662Z,31.60
2022-10-04T14:27:43.707Z,29.15
2022-10-04T14:30:26.149Z,31.55
2022-10-04T14:33:14.982Z,35.75
2022-10-04T14:35:57.749Z,33.70
2022-10-04T14:38:47.202Z,34.95
2022-10-04T14:41:39.385Z,33.35
2022-10-04T14:44:16.117Z,31.40
2022-10-04T14:47:08.801Z,29.52
2022-10-04T14:50:13.559Z,27.58
2022-10-04T14:53:21.768Z,27.15
2022-10-04T14:56:17.763Z,25.17
2022-10-04T14:59:04.045Z,27.67
2022-10-04T15:01:32.397Z,29.02
2022-10-04T15:04:13.418Z,24.20
2022-10-04T15:06:55.208Z,27.35
2022-10-04T15:10:04.208Z,27.50
2022-10-04T15:12:52.013Z,30.50
2022-10-04T15:15:20.081Z,28.75
2022-10-04T15:17:51.226Z,30.27
2022-10-04T15:20:24.058Z,31.38
2022-10-04T15:23:16.016Z,29.45
2022-10-04T15:25:48.004Z,28.27
2022-10-04T15:28:36.683Z,30.60
2022-10-04T15:31:55.032Z,28.73
2022-10-04T15:34:34.591Z,28.17
2022-10-04T15:37:34.833Z,29.25
2022-10-04T15:40:16.291Z,24.92
2022-10-04T15:43:19.680Z,23.35
2022-10-04T15:46:05.384Z,24.13
2022-10-04T15:48:59.600Z,22.20
2022-10-04T15:51:54.679Z,20.13
2022-10-04T15:54:59.725Z,22.77
2022-10-04T16:00:12.959Z,20.90
2022-10-04T16:02:49.831Z,21.30
2022-10-04T16:05:59.000Z,20.40
2022-10-04T16:08:44.657Z,21.00
2022-10-04T16:11:12.678Z,19.75
2022-10-04T16:13:52.728Z,19.95
2022-10-04T16:16:42.930Z,20.77
2022-10-04T16:19:40.160Z,19.10
2022-10-04T16:22:20.978Z,19.27
2022-10-04T16:25:27.340Z,18.23
2022-10-04T16:27:58.190Z,19.50
2022-10-04T16:30:35.189Z,18.52
2022-10-04T16:33:05.996Z,18.92
2022-10-04T16:35:44.444Z,19.63
2022-10-04T16:38:15.160Z,16.70
2022-10-04T16:40:52.058Z,18.98
2022-10-04T16:43:20.028Z,19.60
2022-10-04T16:45:59.945Z,19.33
2022-10-04T16:48:49.052Z,20.30
2022-10-04T16:51:20.223Z,20.17
2022-10-04T16:53:56.298Z,18.20
2022-10-04T16:56:26.940Z,19.30
2022-10-04T16:59:11.600Z,19.50
2022-10-04T17:01:52.915Z,18.52
2022-10-04T17:04:31.765Z,17.73
2022-10-04T17:07:01.066Z,19.33
2022-10-04T17:09:47.291Z,18.08
2022-10-04T17:12:38.008Z,18.08
2022-10-04T17:15:26.876Z,18.02
2022-10-04T17:18:07.047Z,16.85
2022-10-04T17:20:44.006Z,16.35
2022-10-04T17:23:48.943Z,15.35
2022-10-04T17:26:36.876Z,16.33
2022-10-04T17:29:16.740Z,16.33
2022-10-04T17:31:52.450Z,16.38
2022-10-04T17:34:43.078Z,15.23
2022-10-04T17:37:35.694Z,14.77
2022-10-04T17:40:25.095Z,18.40
2022-10-04T17:43:17.187Z,15.00
2022-10-04T17:46:24.454Z,15.65
2022-10-04T17:49:26.993Z,16.58
2022-10-04T17:52:04.392Z,14.98
2022-10-04T17:54:52.756Z,15.55
2022-10-04T17:57:28.897Z,17.30
2022-10-04T18:00:09.645Z,16.52
2022-10-04T18:03:09.779Z,16.15
2022-10-04T18:05:43.604Z,15.48
2022-10-04T18:08:11.615Z,15.82
2022-10-04T18:10:47.257Z,17.73
2022-10-04T18:13:48.498Z,17.50
2022-10-04T18:16:32.536Z,16.25
2022-10-04T18:19:49.361Z,16.45
2022-10-04T18:22:18.742Z,16.70
2022-10-04T18:25:09.137Z,17.00
2022-10-04T18:27:53.092Z,17.42
2022-10-04T18:30:22.309Z,16.60
2022-10-04T18:32:58.777Z,16.13
2022-10-04T18:35:30.352Z,16.55
2022-10-04T18:38:19.682Z,17.13
2022-10-04T18:41:01.861Z,16.75
2022-10-04T18:43:42.384Z,17.55
2022-10-04T18:46:21.864Z,21.48
2022-10-04T18:48:54.036Z,18.02
2022-10-04T18:51:27.856Z,18.63
2022-10-04T18:54:37.266Z,17.83
2022-10-04T18:57:19.906Z,20.95
2022-10-04T19:00:08.135Z,19.35
2022-10-04T19:02:46.600Z,18.08
2022-10-04T19:05:46.956Z,18.33
2022-10-04T19:08:32.535Z,17.98
2022-10-04T19:11:16.964Z,19.33
2022-10-04T19:14:15.150Z,18.55
2022-10-04T19:17:07.908Z,18.40
2022-10-04T19:19:42.827Z,18.48
2022-10-04T19:22:25.725Z,18.20
2022-10-04T19:25:18.173Z,19.23
2022-10-04T19:28:29.611Z,18.48
2022-10-04T19:31:32.962Z,18.13
2022-10-04T19:34:21.066Z,18.63
2022-10-04T19:37:07.869Z,18.83
2022-10-04T19:39:53.949Z,19.65
2022-10-04T19:42:41.990Z,19.10
2022-10-04T19:45:19.725Z,18.70
2022-10-04T19:47:56.325Z,19.80
2022-10-04T19:50:38.089Z,19.67
2022-10-04T19:53:27.554Z,19.38
2022-10-04T19:55:56.996Z,18.13
2022-10-04T19:58:27.956Z,18.08
2022-10-04T20:00:55.647Z,16.85
2022-10-04T20:03:23.823Z,17.92
2022-10-04T20:05:54.563Z,18.05
2022-10-04T20:08:50.415Z,16.23
2022-10-04T20:11:28.165Z,16.95
2022-10-04T20:14:19.404Z,16.90
2022-10-04T20:16:50.785Z,15.15
2022-10-04T20:19:29.324Z,16.50
2022-10-04T20:22:18.300Z,16.75
2022-10-04T20:24:46.319Z,16.10
2022-10-04T20:27:23.021Z,16.15
2022-10-04T20:29:50.998Z,14.98
2022-10-04T20:32:39.117Z,14.40
2022-10-04T20:35:49.832Z,17.05
2022-10-04T20:38:32.323Z,16.25
2022-10-04T20:41:01.340Z,15.65
2022-10-04T20:43:29.923Z,14.40
2022-10-04T20:45:59.153Z,15.40
2022-10-04T20:48:30.019Z,14.43
2022-10-04T20:51:08.097Z,14.57
2022-10-04T20:53:36.821Z,15.13
2022-10-04T20:56:34.067Z,15.15
2022-10-04T20:59:04.450Z,15.48
2022-10-04T21:01:37.523Z,14.98
2022-10-04T21:04:44.533Z,15.40
2022-10-04T21:07:18.185Z,14.85
2022-10-04T21:09:46.485Z,13.60
2022-10-04T21:12:32.827Z,14.63
2022-10-04T21:15:17.741Z,14.77
2022-10-04T21:18:05.986Z,13.77
2022-10-04T21:20:51.189Z,14.60
2022-10-04T21:23:30.473Z,15.15
2022-10-04T21:26:25.998Z,14.10
2022-10-04T21:28:55.458Z,15.15
2022-10-04T21:31:23.572Z,15.30
2022-10-04T21:33:54.789Z,13.85
2022-10-04T21:36:25.787Z,14.32
2022-10-04T21:38:53.811Z,15.88
2022-10-04T21:41:21.929Z,15.80
2022-10-04T21:43:50.018Z,14.13
2022-10-04T21:46:20.402Z,13.75
2022-10-04T21:48:48.992Z,14.07
2022-10-04T21:51:17.085Z,13.70
2022-10-04T21:53:45.100Z,14.25
2022-10-04T21:56:15.593Z,14.07
2022-10-04T21:58:43.616Z,14.07
2022-10-04T22:01:14.718Z,13.93
2022-10-04T22:03:42.993Z,15.27
2022-10-04T22:06:13.656Z,14.05
2022-10-04T22:08:41.892Z,13.77
2022-10-04T22:11:10.739Z,14.02
2022-10-04T22:13:41.158Z,14.70
2022-10-04T22:16:09.543Z,13.27
2022-10-04T22:18:37.669Z,14.68
2022-10-04T22:21:06.338Z,13.98
2022-10-04T22:23:39.708Z,14.48
2022-10-04T22:26:19.079Z,14.45
2022-10-04T22:28:52.844Z,13.80
2022-10-04T22:33:54.519Z,15.82
2022-10-04T22:36:36.837Z,16.02
2022-10-04T22:39:10.863Z,15.65
2022-10-04T22:41:49.379Z,16.35
2022-10-04T22:44:26.006Z,15.27
2022-10-04T22:47:01.933Z,15.38
2022-10-04T22:49:35.732Z,17.42
2022-10-04T22:52:11.920Z,15.93
2022-10-04T22:54:44.708Z,16.13
2022-10-04T22:57:15.138Z,16.40
2022-10-04T22:59:52.388Z,18.20
2022-10-04T23:02:26.095Z,16.77
2022-10-04T23:04:57.387Z,15.82
2022-10-04T23:07:28.386Z,17.25
2022-10-04T23:09:56.420Z,15.45
2022-10-04T23:12:26.994Z,15.57
2022-10-04T23:14:55.830Z,15.40
2022-10-04T23:17:34.942Z,16.15
2022-10-04T23:20:12.577Z,17.17
2022-10-04T23:22:47.767Z,18.88
2022-10-04T23:25:25.810Z,16.98
2022-10-04T23:27:55.667Z,15.98
2022-10-04T23:30:26.522Z,18.52
2022-10-04T23:32:58.389Z,18.30
2022-10-04T23:35:31.180Z,17.55
2022-10-04T23:37:59.270Z,19.10
2022-10-04T23:40:27.365Z,19.58
2022-10-04T23:43:05.764Z,20.52
2022-10-04T23:45:36.746Z,21.30
2022-10-04T23:48:10.204Z,21.52
2022-10-04T23:50:40.670Z,20.52
2022-10-04T23:53:20.253Z,18.02
2022-10-04T23:55:48.374Z,18.02
2022-10-04T23:58:21.196Z,18.98
